sensor_id;sensor_type;location;lat;lon;timestamp;pressure;altitude;pressure_sealevel;temperature;humidity
30339;BME280;795;49.296;11.348;2023-04-22T00:01:09;95860.91;;;11.54;87.65
30339;BME280;795;49.296;11.348;2023-04-22T00:03:36;95800.94;;;11.17;87.06
30339;BME280;795;49.296;11.348;2023-04-22T00:06:05;95882.25;;;11.70;86.18
30339;BME280;795;49.296;11.348;2023-04-22T00:08:32;95882.75;;;11.80;85.52
30339;BME280;795;49.296;11.348;2023-04-22T00:10:58;95870.09;;;11.74;86.09
30339;BME280;795;49.296;11.348;2023-04-22T00:13:25;95868.25;;;11.74;85.34
30339;BME280;795;49.296;11.348;2023-04-22T00:15:52;95795.53;;;11.32;84.77
30339;BME280;795;49.296;11.348;2023-04-22T00:18:19;95873.16;;;11.71;86.11
30339;BME280;795;49.296;11.348;2023-04-22T00:20:46;95867.31;;;11.67;85.86
30339;BME280;795;49.296;11.348;2023-04-22T00:23:13;95871.50;;;11.70;85.70
30339;BME280;795;49.296;11.348;2023-04-22T00:25:40;95860.25;;;11.66;85.29
30339;BME280;795;49.296;11.348;2023-04-22T00:28:07;95845.16;;;11.51;86.29
30339;BME280;795;49.296;11.348;2023-04-22T00:30:35;95861.81;;;11.61;86.44
30339;BME280;795;49.296;11.348;2023-04-22T00:33:02;95870.34;;;11.64;85.81
30339;BME280;795;49.296;11.348;2023-04-22T00:35:29;95777.69;;;11.10;85.20
30339;BME280;795;49.296;11.348;2023-04-22T00:37:56;95818.31;;;11.36;86.11
30339;BME280;795;49.296;11.348;2023-04-22T00:40:23;95804.25;;;11.19;86.59
30339;BME280;795;49.296;11.348;2023-04-22T00:42:50;95783.19;;;11.02;86.21
30339;BME280;795;49.296;11.348;2023-04-22T00:45:19;95765.41;;;10.86;87.23
30339;BME280;795;49.296;11.348;2023-04-22T00:47:47;95865.09;;;11.42;87.98
30339;BME280;795;49.296;11.348;2023-04-22T00:50:15;95832.72;;;11.28;86.61
30339;BME280;795;49.296;11.348;2023-04-22T00:52:42;95855.19;;;11.42;86.74
30339;BME280;795;49.296;11.348;2023-04-22T00:55:10;95859.34;;;11.45;86.50
30339;BME280;795;49.296;11.348;2023-04-22T00:57:39;95866.38;;;11.46;86.07
30339;BME280;795;49.296;11.348;2023-04-22T01:00:07;95815.28;;;11.10;86.43
30339;BME280;795;49.296;11.348;2023-04-22T01:02:37;95868.56;;;11.36;86.41
30339;BME280;795;49.296;11.348;2023-04-22T01:05:06;95841.97;;;11.11;86.18
30339;BME280;795;49.296;11.348;2023-04-22T01:07:35;95858.63;;;11.21;86.26
30339;BME280;795;49.296;11.348;2023-04-22T01:10:03;95869.28;;;11.29;85.68
30339;BME280;795;49.296;11.348;2023-04-22T01:12:30;95858.47;;;11.23;85.24
30339;BME280;795;49.296;11.348;2023-04-22T01:14:57;95861.06;;;11.31;84.85
30339;BME280;795;49.296;11.348;2023-04-22T01:17:24;95871.69;;;11.39;84.08
30339;BME280;795;49.296;11.348;2023-04-22T01:19:51;95857.81;;;11.36;83.54
30339;BME280;795;49.296;11.348;2023-04-22T01:22:21;95868.56;;;11.36;84.07
30339;BME280;795;49.296;11.348;2023-04-22T01:24:48;95857.53;;;11.30;83.30
30339;BME280;795;49.296;11.348;2023-04-22T01:27:15;95869.66;;;11.26;84.05
30339;BME280;795;49.296;11.348;2023-04-22T01:29:43;95814.22;;;10.90;84.28
30339;BME280;795;49.296;11.348;2023-04-22T01:32:10;95865.69;;;11.22;84.20
30339;BME280;795;49.296;11.348;2023-04-22T01:34:37;95826.59;;;11.05;83.32
30339;BME280;795;49.296;11.348;2023-04-22T01:37:06;95814.28;;;10.96;82.84
30339;BME280;795;49.296;11.348;2023-04-22T01:39:34;95858.47;;;11.23;83.37
30339;BME280;795;49.296;11.348;2023-04-22T01:42:02;95850.56;;;11.21;83.35
30339;BME280;795;49.296;11.348;2023-04-22T01:44:29;95826.50;;;10.99;84.09
30339;BME280;795;49.296;11.348;2023-04-22T01:46:56;95807.44;;;10.79;84.75
30339;BME280;795;49.296;11.348;2023-04-22T01:49:23;95825.19;;;10.95;84.64
30339;BME280;795;49.296;11.348;2023-04-22T01:51:50;95758.09;;;10.65;84.28
30339;BME280;795;49.296;11.348;2023-04-22T01:54:17;95847.63;;;11.16;84.89
30339;BME280;795;49.296;11.348;2023-04-22T01:56:54;95843.47;;;11.14;85.48
30339;BME280;795;49.296;11.348;2023-04-22T01:59:21;95844.84;;;11.10;86.43
30339;BME280;795;49.296;11.348;2023-04-22T02:01:48;95811.97;;;10.93;85.81
30339;BME280;795;49.296;11.348;2023-04-22T02:04:16;95842.06;;;11.03;85.68
30339;BME280;795;49.296;11.348;2023-04-22T02:06:43;95847.53;;;11.10;85.05
30339;BME280;795;49.296;11.348;2023-04-22T02:09:09;95849.13;;;11.04;85.18
30339;BME280;795;49.296;11.348;2023-04-22T02:11:36;95855.69;;;11.02;85.69
30339;BME280;795;49.296;11.348;2023-04-22T02:14:03;95852.34;;;11.00;85.97
30339;BME280;795;49.296;11.348;2023-04-22T02:16:30;95856.13;;;11.05;85.07
30339;BME280;795;49.296;11.348;2023-04-22T02:18:57;95848.56;;;10.94;85.09
30339;BME280;795;49.296;11.348;2023-04-22T02:21:29;95853.53;;;10.97;85.33
30339;BME280;795;49.296;11.348;2023-04-22T02:23:58;95852.16;;;10.87;86.36
30339;BME280;795;49.296;11.348;2023-04-22T02:26:25;95852.16;;;10.87;85.34
30339;BME280;795;49.296;11.348;2023-04-22T02:28:52;95855.13;;;10.92;85.77
30339;BME280;795;49.296;11.348;2023-04-22T02:31:19;95855.84;;;11.00;84.42
30339;BME280;795;49.296;11.348;2023-04-22T02:33:46;95857.06;;;10.98;85.27
30339;BME280;795;49.296;11.348;2023-04-22T02:36:13;95849.75;;;10.92;84.65
30339;BME280;795;49.296;11.348;2023-04-22T02:38:40;95859.59;;;10.99;84.50
30339;BME280;795;49.296;11.348;2023-04-22T02:41:07;95770.84;;;10.49;83.80
30339;BME280;795;49.296;11.348;2023-04-22T02:43:34;95843.91;;;10.88;84.16
30339;BME280;795;49.296;11.348;2023-04-22T02:46:01;95791.31;;;10.50;83.52
30339;BME280;795;49.296;11.348;2023-04-22T02:48:28;95871.25;;;10.92;84.17
30339;BME280;795;49.296;11.348;2023-04-22T02:50:55;95869.38;;;10.78;85.52
30339;BME280;795;49.296;11.348;2023-04-22T02:53:22;95873.63;;;10.72;86.18
30339;BME280;795;49.296;11.348;2023-04-22T02:55:49;95869.81;;;10.66;86.05
30339;BME280;795;49.296;11.348;2023-04-22T02:58:18;95881.94;;;10.62;86.25
30339;BME280;795;49.296;11.348;2023-04-22T03:00:45;95799.13;;;9.99;87.92
30339;BME280;795;49.296;11.348;2023-04-22T03:03:12;95864.22;;;10.16;91.23
30339;BME280;795;49.296;11.348;2023-04-22T03:05:39;95878.38;;;10.02;94.08
30339;BME280;795;49.296;11.348;2023-04-22T03:08:06;95865.41;;;9.60;96.00
30339;BME280;795;49.296;11.348;2023-04-22T03:10:33;95832.53;;;9.35;97.50
30339;BME280;795;49.296;11.348;2023-04-22T03:13:00;95863.50;;;9.38;99.02
30339;BME280;795;49.296;11.348;2023-04-22T03:15:27;95873.22;;;9.39;100.00
30339;BME280;795;49.296;11.348;2023-04-22T03:17:54;95871.94;;;9.27;100.00
30339;BME280;795;49.296;11.348;2023-04-22T03:20:21;95815.19;;;8.85;100.00
30339;BME280;795;49.296;11.348;2023-04-22T03:22:48;95885.50;;;9.25;100.00
30339;BME280;795;49.296;11.348;2023-04-22T03:25:15;95727.41;;;8.33;100.00
30339;BME280;795;49.296;11.348;2023-04-22T03:27:42;95870.66;;;9.07;100.00
30339;BME280;795;49.296;11.348;2023-04-22T03:30:10;95870.03;;;8.97;100.00
30339;BME280;795;49.296;11.348;2023-04-22T03:32:37;95847.66;;;8.82;100.00
30339;BME280;795;49.296;11.348;2023-04-22T03:35:04;95857.38;;;8.75;100.00
30339;BME280;795;49.296;11.348;2023-04-22T03:37:31;95824.34;;;8.43;100.00
30339;BME280;795;49.296;11.348;2023-04-22T03:39:58;95872.63;;;8.74;100.00
30339;BME280;795;49.296;11.348;2023-04-22T03:42:25;95871.47;;;8.68;100.00
30339;BME280;795;49.296;11.348;2023-04-22T03:44:52;95760.06;;;7.96;100.00
30339;BME280;795;49.296;11.348;2023-04-22T03:47:19;95839.06;;;8.39;100.00
30339;BME280;795;49.296;11.348;2023-04-22T03:49:46;95860.63;;;8.46;100.00
30339;BME280;795;49.296;11.348;2023-04-22T03:52:13;95860.13;;;8.26;100.00
30339;BME280;795;49.296;11.348;2023-04-22T03:54:40;95797.81;;;7.85;100.00
30339;BME280;795;49.296;11.348;2023-04-22T03:57:07;95759.22;;;7.40;100.00
30339;BME280;795;49.296;11.348;2023-04-22T03:59:34;95863.78;;;7.93;100.00
30339;BME280;795;49.296;11.348;2023-04-22T04:02:01;95872.50;;;8.27;100.00
30339;BME280;795;49.296;11.348;2023-04-22T04:04:28;95866.47;;;8.25;100.00
30339;BME280;795;49.296;11.348;2023-04-22T04:10:42;95867.00;;;8.45;100.00
30339;BME280;795;49.296;11.348;2023-04-22T04:13:09;95849.09;;;8.29;100.00
30339;BME280;795;49.296;11.348;2023-04-22T04:15:36;95835.41;;;8.16;100.00
30339;BME280;795;49.296;11.348;2023-04-22T04:18:03;95850.44;;;8.33;100.00
30339;BME280;795;49.296;11.348;2023-04-22T04:20:30;95869.00;;;8.43;100.00
30339;BME280;795;49.296;11.348;2023-04-22T04:22:57;95865.97;;;8.46;100.00
30339;BME280;795;49.296;11.348;2023-04-22T04:25:24;95805.81;;;8.18;100.00
30339;BME280;795;49.296;11.348;2023-04-22T04:27:51;95864.13;;;8.54;100.00
30339;BME280;795;49.296;11.348;2023-04-22T04:30:18;95871.78;;;8.65;100.00
30339;BME280;795;49.296;11.348;2023-04-22T04:32:47;95872.44;;;8.76;100.00
30339;BME280;795;49.296;11.348;2023-04-22T04:35:14;95810.81;;;8.37;100.00
30339;BME280;795;49.296;11.348;2023-04-22T04:37:42;95875.06;;;8.92;100.00
30339;BME280;795;49.296;11.348;2023-04-22T04:40:10;95847.16;;;8.86;100.00
30339;BME280;795;49.296;11.348;2023-04-22T04:42:40;95869.19;;;8.96;100.00
30339;BME280;795;49.296;11.348;2023-04-22T04:45:08;95851.16;;;8.82;100.00
30339;BME280;795;49.296;11.348;2023-04-22T04:47:35;95814.88;;;8.80;100.00
30339;BME280;795;49.296;11.348;2023-04-22T04:50:02;95868.28;;;9.20;100.00
30339;BME280;795;49.296;11.348;2023-04-22T04:52:30;95854.06;;;9.19;100.00
30339;BME280;795;49.296;11.348;2023-04-22T04:54:57;95874.22;;;9.38;100.00
30339;BME280;795;49.296;11.348;2023-04-22T04:57:24;95847.75;;;9.43;100.00
30339;BME280;795;49.296;11.348;2023-04-22T04:59:51;95852.53;;;9.56;100.00
30339;BME280;795;49.296;11.348;2023-04-22T05:02:18;95802.09;;;9.37;100.00
30339;BME280;795;49.296;11.348;2023-04-22T05:04:45;95872.22;;;9.93;100.00
30339;BME280;795;49.296;11.348;2023-04-22T05:07:13;95857.81;;;9.94;100.00
30339;BME280;795;49.296;11.348;2023-04-22T05:09:40;95758.66;;;9.49;98.51
30339;BME280;795;49.296;11.348;2023-04-22T05:12:07;95808.00;;;9.77;98.75
30339;BME280;795;49.296;11.348;2023-04-22T05:14:34;95870.00;;;10.28;97.26
30339;BME280;795;49.296;11.348;2023-04-22T05:17:02;95821.53;;;10.07;95.73
30339;BME280;795;49.296;11.348;2023-04-22T05:19:29;95802.75;;;10.07;94.89
30339;BME280;795;49.296;11.348;2023-04-22T05:21:56;95868.50;;;10.62;93.20
30339;BME280;795;49.296;11.348;2023-04-22T05:24:24;95849.53;;;10.64;92.64
30339;BME280;795;49.296;11.348;2023-04-22T05:26:51;95854.56;;;10.96;89.50
30339;BME280;795;49.296;11.348;2023-04-22T05:29:18;95882.25;;;11.55;85.18
30339;BME280;795;49.296;11.348;2023-04-22T05:31:45;95886.28;;;11.80;83.47
30339;BME280;795;49.296;11.348;2023-04-22T05:34:12;95865.69;;;11.87;81.03
30339;BME280;795;49.296;11.348;2023-04-22T05:36:39;95890.97;;;12.29;79.21
30339;BME280;795;49.296;11.348;2023-04-22T05:39:06;95800.16;;;12.16;76.89
30339;BME280;795;49.296;11.348;2023-04-22T05:41:33;95874.97;;;12.70;74.67
30339;BME280;795;49.296;11.348;2023-04-22T05:44:00;95854.72;;;12.74;74.80
30339;BME280;795;49.296;11.348;2023-04-22T05:46:27;95831.06;;;13.03;71.14
30339;BME280;795;49.296;11.348;2023-04-22T05:48:54;95870.25;;;13.27;72.44
30339;BME280;795;49.296;11.348;2023-04-22T05:51:22;95902.63;;;13.81;70.50
30339;BME280;795;49.296;11.348;2023-04-22T05:53:50;95901.25;;;13.91;70.33
30339;BME280;795;49.296;11.348;2023-04-22T05:56:17;95886.34;;;14.09;66.93
30339;BME280;795;49.296;11.348;2023-04-22T05:58:44;95815.66;;;13.72;67.34
30339;BME280;795;49.296;11.348;2023-04-22T06:01:11;95893.59;;;14.02;67.77
30339;BME280;795;49.296;11.348;2023-04-22T06:03:39;95874.72;;;14.15;67.63
30339;BME280;795;49.296;11.348;2023-04-22T06:06:07;95871.09;;;14.42;66.43
30339;BME280;795;49.296;11.348;2023-04-22T06:08:34;95905.38;;;14.61;65.64
30339;BME280;795;49.296;11.348;2023-04-22T06:11:01;95910.97;;;14.40;67.00
30339;BME280;795;49.296;11.348;2023-04-22T06:13:28;95884.59;;;14.42;65.73
30339;BME280;795;49.296;11.348;2023-04-22T06:15:55;95847.50;;;14.03;66.23
30339;BME280;795;49.296;11.348;2023-04-22T06:18:22;95904.53;;;14.41;65.32
30339;BME280;795;49.296;11.348;2023-04-22T06:20:50;95907.06;;;14.62;65.18
30339;BME280;795;49.296;11.348;2023-04-22T06:23:17;95920.16;;;14.78;65.95
30339;BME280;795;49.296;11.348;2023-04-22T06:25:44;95770.69;;;14.06;63.63
30339;BME280;795;49.296;11.348;2023-04-22T06:28:12;95911.84;;;15.12;64.43
30339;BME280;795;49.296;11.348;2023-04-22T06:30:39;95839.09;;;14.52;62.28
30339;BME280;795;49.296;11.348;2023-04-22T06:33:06;95917.06;;;14.94;63.91
30339;BME280;795;49.296;11.348;2023-04-22T06:35:33;95911.63;;;15.34;62.50
30339;BME280;795;49.296;11.348;2023-04-22T06:38:01;95903.28;;;15.28;60.26
30339;BME280;795;49.296;11.348;2023-04-22T06:40:27;95905.59;;;15.32;61.58
30339;BME280;795;49.296;11.348;2023-04-22T06:42:54;95848.34;;;15.41;61.87
30339;BME280;795;49.296;11.348;2023-04-22T06:45:21;95914.94;;;15.49;60.32
30339;BME280;795;49.296;11.348;2023-04-22T06:47:48;95914.03;;;15.74;60.40
30339;BME280;795;49.296;11.348;2023-04-22T06:50:17;95911.53;;;15.86;59.95
30339;BME280;795;49.296;11.348;2023-04-22T06:52:44;95854.56;;;15.61;59.82
30339;BME280;795;49.296;11.348;2023-04-22T06:55:11;95883.78;;;15.97;58.48
30339;BME280;795;49.296;11.348;2023-04-22T06:57:38;95886.09;;;15.87;58.35
30339;BME280;795;49.296;11.348;2023-04-22T07:00:07;95907.22;;;16.16;60.13
30339;BME280;795;49.296;11.348;2023-04-22T07:02:36;95867.94;;;16.01;58.81
30339;BME280;795;49.296;11.348;2023-04-22T07:05:04;95866.81;;;16.15;57.81
30339;BME280;795;49.296;11.348;2023-04-22T07:07:31;95908.06;;;16.54;57.53
30339;BME280;795;49.296;11.348;2023-04-22T07:09:58;95901.22;;;16.45;57.93
30339;BME280;795;49.296;11.348;2023-04-22T07:12:25;95844.88;;;16.29;57.79
30339;BME280;795;49.296;11.348;2023-04-22T07:14:52;95904.75;;;16.59;57.69
30339;BME280;795;49.296;11.348;2023-04-22T07:17:19;95906.59;;;16.90;57.54
30339;BME280;795;49.296;11.348;2023-04-22T07:19:48;95906.69;;;17.51;55.59
30339;BME280;795;49.296;11.348;2023-04-22T07:22:15;95885.59;;;17.28;56.15
30339;BME280;795;49.296;11.348;2023-04-22T07:24:42;95884.94;;;17.94;54.96
30339;BME280;795;49.296;11.348;2023-04-22T07:27:09;95887.88;;;17.92;53.50
30339;BME280;795;49.296;11.348;2023-04-22T07:29:36;95851.16;;;17.89;53.13
30339;BME280;795;49.296;11.348;2023-04-22T07:32:04;95885.00;;;18.53;51.89
30339;BME280;795;49.296;11.348;2023-04-22T07:34:31;95897.81;;;18.16;55.03
30339;BME280;795;49.296;11.348;2023-04-22T07:36:58;95893.91;;;18.42;53.82
30339;BME280;795;49.296;11.348;2023-04-22T07:39:25;95871.91;;;18.62;52.81
30339;BME280;795;49.296;11.348;2023-04-22T07:41:52;95841.69;;;18.40;52.73
30339;BME280;795;49.296;11.348;2023-04-22T07:44:22;95892.06;;;18.24;53.76
30339;BME280;795;49.296;11.348;2023-04-22T07:46:49;95886.28;;;18.50;52.98
30339;BME280;795;49.296;11.348;2023-04-22T07:49:16;95892.97;;;18.66;52.78
30339;BME280;795;49.296;11.348;2023-04-22T07:51:44;95813.50;;;17.93;51.57
30339;BME280;795;49.296;11.348;2023-04-22T07:54:11;95897.81;;;18.16;53.12
30339;BME280;795;49.296;11.348;2023-04-22T07:56:38;95863.78;;;18.43;53.23
30339;BME280;795;49.296;11.348;2023-04-22T07:59:06;95866.59;;;18.37;53.89
30339;BME280;795;49.296;11.348;2023-04-22T08:03:55;95835.69;;;19.02;51.20
30339;BME280;795;49.296;11.348;2023-04-22T08:06:23;95870.34;;;18.54;50.47
30339;BME280;795;49.296;11.348;2023-04-22T08:08:50;95893.56;;;19.21;50.80
30339;BME280;795;49.296;11.348;2023-04-22T08:11:17;95897.41;;;19.43;50.34
30339;BME280;795;49.296;11.348;2023-04-22T08:13:44;95868.03;;;18.69;49.73
30339;BME280;795;49.296;11.348;2023-04-22T08:16:11;95881.63;;;18.58;50.60
30339;BME280;795;49.296;11.348;2023-04-22T08:18:38;95855.03;;;18.60;50.34
30339;BME280;795;49.296;11.348;2023-04-22T08:21:05;95859.94;;;18.51;50.91
30339;BME280;795;49.296;11.348;2023-04-22T08:23:32;95892.44;;;18.87;51.12
30339;BME280;795;49.296;11.348;2023-04-22T08:25:59;95842.44;;;19.00;50.45
30339;BME280;795;49.296;11.348;2023-04-22T08:28:26;95892.91;;;19.49;50.35
30339;BME280;795;49.296;11.348;2023-04-22T08:30:53;95904.13;;;19.87;48.45
30339;BME280;795;49.296;11.348;2023-04-22T08:33:20;95889.16;;;20.24;48.35
30339;BME280;795;49.296;11.348;2023-04-22T08:35:47;95875.19;;;20.09;47.92
30339;BME280;795;49.296;11.348;2023-04-22T08:38:14;95901.06;;;20.46;47.13
30339;BME280;795;49.296;11.348;2023-04-22T08:40:42;95865.63;;;20.46;47.11
30339;BME280;795;49.296;11.348;2023-04-22T08:43:09;95901.72;;;20.82;46.94
30339;BME280;795;49.296;11.348;2023-04-22T08:45:39;95860.88;;;20.87;47.19
30339;BME280;795;49.296;11.348;2023-04-22T08:48:08;95899.06;;;21.32;45.24
30339;BME280;795;49.296;11.348;2023-04-22T08:50:37;95827.19;;;21.09;45.51
30339;BME280;795;49.296;11.348;2023-04-22T08:53:07;95903.53;;;22.09;44.57
30339;BME280;795;49.296;11.348;2023-04-22T08:55:35;95820.59;;;21.60;44.47
30339;BME280;795;49.296;11.348;2023-04-22T08:58:04;95875.50;;;21.26;45.22
30339;BME280;795;49.296;11.348;2023-04-22T09:00:32;95886.56;;;21.52;45.27
30339;BME280;795;49.296;11.348;2023-04-22T09:03:01;95881.72;;;21.21;46.28
30339;BME280;795;49.296;11.348;2023-04-22T09:05:38;95859.88;;;20.93;45.91
30339;BME280;795;49.296;11.348;2023-04-22T09:08:07;95809.88;;;21.37;45.18
30339;BME280;795;49.296;11.348;2023-04-22T09:10:38;95887.19;;;21.93;44.46
30339;BME280;795;49.296;11.348;2023-04-22T09:13:06;95855.53;;;21.80;43.83
30339;BME280;795;49.296;11.348;2023-04-22T09:15:33;95876.09;;;22.21;45.06
30339;BME280;795;49.296;11.348;2023-04-22T09:18:02;95879.19;;;22.51;43.30
30339;BME280;795;49.296;11.348;2023-04-22T09:20:31;95884.41;;;22.31;43.73
30339;BME280;795;49.296;11.348;2023-04-22T09:23:02;95790.03;;;21.63;42.60
30339;BME280;795;49.296;11.348;2023-04-22T09:25:33;95868.44;;;22.44;43.80
30339;BME280;795;49.296;11.348;2023-04-22T09:28:01;95801.22;;;22.27;41.66
30339;BME280;795;49.296;11.348;2023-04-22T09:30:35;95861.63;;;22.47;41.26
30339;BME280;795;49.296;11.348;2023-04-22T09:33:06;95850.63;;;22.90;42.40
30339;BME280;795;49.296;11.348;2023-04-22T09:35:39;95871.69;;;23.48;40.57
30339;BME280;795;49.296;11.348;2023-04-22T09:38:10;95868.66;;;23.18;40.73
30339;BME280;795;49.296;11.348;2023-04-22T09:40:42;95799.03;;;23.09;39.76
30339;BME280;795;49.296;11.348;2023-04-22T09:43:10;95802.75;;;23.30;38.89
30339;BME280;795;49.296;11.348;2023-04-22T09:45:41;95868.22;;;22.73;40.59
30339;BME280;795;49.296;11.348;2023-04-22T09:48:13;95866.56;;;21.85;41.84
30339;BME280;795;49.296;11.348;2023-04-22T09:50:49;95866.09;;;22.10;42.95
30339;BME280;795;49.296;11.348;2023-04-22T09:53:20;95866.53;;;22.93;40.92
30339;BME280;795;49.296;11.348;2023-04-22T09:55:54;95823.53;;;22.40;40.93
30339;BME280;795;49.296;11.348;2023-04-22T09:58:21;95797.13;;;21.43;42.95
30339;BME280;795;49.296;11.348;2023-04-22T10:00:55;95837.13;;;21.87;42.31
30339;BME280;795;49.296;11.348;2023-04-22T10:03:23;95852.69;;;21.87;42.33
30339;BME280;795;49.296;11.348;2023-04-22T10:05:50;95859.38;;;21.41;42.96
30339;BME280;795;49.296;11.348;2023-04-22T10:08:17;95787.72;;;20.84;43.62
30339;BME280;795;49.296;11.348;2023-04-22T10:10:45;95851.56;;;20.83;44.46
30339;BME280;795;49.296;11.348;2023-04-22T10:13:12;95856.47;;;21.31;43.95
30339;BME280;795;49.296;11.348;2023-04-22T10:15:52;95763.41;;;20.99;44.03
30339;BME280;795;49.296;11.348;2023-04-22T10:18:26;95776.19;;;21.48;41.76
30339;BME280;795;49.296;11.348;2023-04-22T10:20:57;95845.38;;;22.84;41.27
30339;BME280;795;49.296;11.348;2023-04-22T10:23:25;95825.78;;;23.65;38.83
30339;BME280;795;49.296;11.348;2023-04-22T10:25:55;95789.00;;;23.56;40.78
30339;BME280;795;49.296;11.348;2023-04-22T10:28:27;95851.09;;;24.39;38.93
30339;BME280;795;49.296;11.348;2023-04-22T10:30:54;95820.59;;;23.32;39.00
30339;BME280;795;49.296;11.348;2023-04-22T10:39:13;95788.19;;;24.13;37.25
30339;BME280;795;49.296;11.348;2023-04-22T10:41:32;95858.69;;;24.79;38.20
30339;BME280;795;49.296;11.348;2023-04-22T10:44:07;95815.53;;;24.70;37.24
30339;BME280;795;49.296;11.348;2023-04-22T10:49:11;95853.22;;;25.30;35.65
30339;BME280;795;49.296;11.348;2023-04-22T10:51:54;95813.13;;;24.98;34.91
30339;BME280;795;49.296;11.348;2023-04-22T10:57:08;95754.91;;;23.94;37.90
30339;BME280;795;49.296;11.348;2023-04-22T10:59:56;95786.41;;;23.87;37.96
30339;BME280;795;49.296;11.348;2023-04-22T11:02:23;95795.06;;;24.20;38.62
30339;BME280;795;49.296;11.348;2023-04-22T11:05:26;95769.69;;;23.93;37.29
30339;BME280;795;49.296;11.348;2023-04-22T11:10:39;95834.81;;;23.66;39.65
30339;BME280;795;49.296;11.348;2023-04-22T11:13:18;95800.75;;;23.15;40.18
30339;BME280;795;49.296;11.348;2023-04-22T11:15:50;95774.06;;;23.00;41.06
30339;BME280;795;49.296;11.348;2023-04-22T11:18:24;95796.63;;;22.81;40.71
30339;BME280;795;49.296;11.348;2023-04-22T11:20:53;95837.38;;;23.09;40.60
30339;BME280;795;49.296;11.348;2023-04-22T11:23:26;95792.13;;;22.70;42.01
30339;BME280;795;49.296;11.348;2023-04-22T11:25:57;95815.13;;;23.00;41.26
30339;BME280;795;49.296;11.348;2023-04-22T11:28:25;95817.47;;;22.87;40.61
30339;BME280;795;49.296;11.348;2023-04-22T11:31:04;95798.09;;;23.25;40.94
30339;BME280;795;49.296;11.348;2023-04-22T11:33:33;95818.63;;;24.98;38.62
30339;BME280;795;49.296;11.348;2023-04-22T11:36:01;95786.81;;;26.22;35.46
30339;BME280;795;49.296;11.348;2023-04-22T11:38:28;95802.78;;;27.51;34.13
30339;BME280;795;49.296;11.348;2023-04-22T11:40:55;95816.16;;;27.01;34.76
30339;BME280;795;49.296;11.348;2023-04-22T11:43:24;95781.00;;;27.16;34.10
30339;BME280;795;49.296;11.348;2023-04-22T11:45:55;95820.91;;;27.24;34.05
30339;BME280;795;49.296;11.348;2023-04-22T11:48:23;95820.75;;;27.10;33.88
30339;BME280;795;49.296;11.348;2023-04-22T11:51:08;95761.47;;;26.35;34.13
30339;BME280;795;49.296;11.348;2023-04-22T11:53:37;95826.34;;;26.46;35.22
30339;BME280;795;49.296;11.348;2023-04-22T11:56:05;95792.56;;;27.52;32.51
30339;BME280;795;49.296;11.348;2023-04-22T11:58:32;95787.78;;;27.29;33.53
30339;BME280;795;49.296;11.348;2023-04-22T12:01:04;95751.19;;;26.89;34.91
30339;BME280;795;49.296;11.348;2023-04-22T12:03:33;95815.44;;;27.52;31.84
30339;BME280;795;49.296;11.348;2023-04-22T12:06:04;95774.78;;;26.62;33.76
30339;BME280;795;49.296;11.348;2023-04-22T12:08:36;95775.47;;;25.24;34.99
30339;BME280;795;49.296;11.348;2023-04-22T12:11:08;95726.59;;;25.11;34.21
30339;BME280;795;49.296;11.348;2023-04-22T12:16:09;95801.78;;;27.04;31.75
30339;BME280;795;49.296;11.348;2023-04-22T12:18:53;95796.63;;;26.92;33.12
30339;BME280;795;49.296;11.348;2023-04-22T12:21:25;95764.00;;;27.67;31.82
30339;BME280;795;49.296;11.348;2023-04-22T12:24:01;95794.69;;;28.12;31.33
30339;BME280;795;49.296;11.348;2023-04-22T12:26:31;95788.78;;;28.24;31.98
30339;BME280;795;49.296;11.348;2023-04-22T12:29:00;95790.16;;;27.45;31.35
30339;BME280;795;49.296;11.348;2023-04-22T12:31:27;95739.38;;;27.75;31.32
30339;BME280;795;49.296;11.348;2023-04-22T12:33:55;95783.22;;;27.77;31.77
30339;BME280;795;49.296;11.348;2023-04-22T12:36:23;95760.72;;;27.36;32.59
30339;BME280;795;49.296;11.348;2023-04-22T12:38:52;95745.63;;;26.56;32.94
30339;BME280;795;49.296;11.348;2023-04-22T12:41:19;95777.13;;;26.34;32.30
30339;BME280;795;49.296;11.348;2023-04-22T12:43:46;95717.81;;;26.13;31.03
30339;BME280;795;49.296;11.348;2023-04-22T12:46:13;95785.00;;;25.87;31.12
30339;BME280;795;49.296;11.348;2023-04-22T12:48:40;95780.78;;;26.20;32.70
30339;BME280;795;49.296;11.348;2023-04-22T12:51:08;95755.91;;;25.71;33.00
30339;BME280;795;49.296;11.348;2023-04-22T12:53:35;95772.44;;;25.41;33.31
30339;BME280;795;49.296;11.348;2023-04-22T12:56:02;95782.06;;;24.93;33.41
30339;BME280;795;49.296;11.348;2023-04-22T12:58:29;95768.63;;;24.96;34.40
30339;BME280;795;49.296;11.348;2023-04-22T13:00:56;95759.53;;;25.31;33.43
30339;BME280;795;49.296;11.348;2023-04-22T13:03:23;95781.09;;;26.08;31.82
30339;BME280;795;49.296;11.348;2023-04-22T13:05:51;95732.84;;;27.42;29.66
30339;BME280;795;49.296;11.348;2023-04-22T13:08:18;95780.72;;;28.70;27.22
30339;BME280;795;49.296;11.348;2023-04-22T13:10:46;95744.00;;;28.69;28.43
30339;BME280;795;49.296;11.348;2023-04-22T13:13:13;95699.44;;;29.54;27.88
30339;BME280;795;49.296;11.348;2023-04-22T13:15:48;95754.88;;;30.85;26.34
30339;BME280;795;49.296;11.348;2023-04-22T13:18:21;95740.97;;;29.03;27.77
30339;BME280;795;49.296;11.348;2023-04-22T13:20:49;95743.47;;;28.67;28.08
30339;BME280;795;49.296;11.348;2023-04-22T13:23:17;95749.59;;;27.98;29.15
30339;BME280;795;49.296;11.348;2023-04-22T13:25:45;95749.66;;;27.70;29.45
30339;BME280;795;49.296;11.348;2023-04-22T13:28:13;95740.53;;;27.45;30.39
30339;BME280;795;49.296;11.348;2023-04-22T13:30:40;95740.97;;;27.24;30.97
30339;BME280;795;49.296;11.348;2023-04-22T13:33:07;95750.25;;;26.65;31.50
30339;BME280;795;49.296;11.348;2023-04-22T13:35:35;95703.22;;;26.18;31.11
30339;BME280;795;49.296;11.348;2023-04-22T13:38:02;95741.69;;;26.23;30.73